sensor_id;sensor_type;location;lat;lon;timestamp;P1;durP1;ratioP1;P2;durP2;ratioP2
34144;SDS011;20422;53.014;8.886;2022-08-25T00:01:01;4.70;;;3.53;;
34144;SDS011;20422;53.014;8.886;2022-08-25T00:03:26;7.47;;;4.20;;
34144;SDS011;20422;53.014;8.886;2022-08-25T00:05:51;9.25;;;3.83;;
34144;SDS011;20422;53.014;8.886;2022-08-25T00:08:17;12.45;;;4.47;;
34144;SDS011;20422;53.014;8.886;2022-08-25T00:10:42;8.18;;;4.68;;
34144;SDS011;20422;53.014;8.886;2022-08-25T00:13:08;9.43;;;4.03;;
34144;SDS011;20422;53.014;8.886;2022-08-25T00:15:33;7.00;;;4.70;;
34144;SDS011;20422;53.014;8.886;2022-08-25T00:18:00;8.80;;;4.20;;
34144;SDS011;20422;53.014;8.886;2022-08-25T00:20:27;5.90;;;3.83;;
34144;SDS011;20422;53.014;8.886;2022-08-25T00:22:53;10.48;;;4.65;;
34144;SDS011;20422;53.014;8.886;2022-08-25T00:25:20;8.07;;;4.00;;
34144;SDS011;20422;53.014;8.886;2022-08-25T00:27:45;11.95;;;5.18;;
34144;SDS011;20422;53.014;8.886;2022-08-25T00:30:12;13.63;;;4.28;;
34144;SDS011;20422;53.014;8.886;2022-08-25T00:32:38;12.68;;;5.00;;
34144;SDS011;20422;53.014;8.886;2022-08-25T00:35:04;10.60;;;4.68;;
34144;SDS011;20422;53.014;8.886;2022-08-25T00:37:31;15.07;;;4.93;;
34144;SDS011;20422;53.014;8.886;2022-08-25T00:39:56;12.25;;;5.13;;
34144;SDS011;20422;53.014;8.886;2022-08-25T00:42:23;7.88;;;5.18;;
34144;SDS011;20422;53.014;8.886;2022-08-25T00:44:49;10.18;;;4.95;;
34144;SDS011;20422;53.014;8.886;2022-08-25T00:47:14;5.55;;;4.28;;
34144;SDS011;20422;53.014;8.886;2022-08-25T00:49:56;7.88;;;4.70;;
34144;SDS011;20422;53.014;8.886;2022-08-25T00:52:29;11.15;;;4.97;;
34144;SDS011;20422;53.014;8.886;2022-08-25T00:54:59;15.80;;;5.25;;
34144;SDS011;20422;53.014;8.886;2022-08-25T00:57:32;5.28;;;4.55;;
34144;SDS011;20422;53.014;8.886;2022-08-25T01:00:00;7.35;;;4.55;;
34144;SDS011;20422;53.014;8.886;2022-08-25T01:02:32;9.35;;;4.68;;
34144;SDS011;20422;53.014;8.886;2022-08-25T01:04:57;7.55;;;4.55;;
34144;SDS011;20422;53.014;8.886;2022-08-25T01:07:23;11.57;;;6.13;;
34144;SDS011;20422;53.014;8.886;2022-08-25T01:09:48;7.68;;;5.07;;
34144;SDS011;20422;53.014;8.886;2022-08-25T01:12:15;10.00;;;5.30;;
34144;SDS011;20422;53.014;8.886;2022-08-25T01:14:41;10.95;;;5.30;;
34144;SDS011;20422;53.014;8.886;2022-08-25T01:17:10;11.50;;;5.18;;
34144;SDS011;20422;53.014;8.886;2022-08-25T01:19:36;9.85;;;5.22;;
34144;SDS011;20422;53.014;8.886;2022-08-25T01:22:01;8.95;;;5.13;;
34144;SDS011;20422;53.014;8.886;2022-08-25T01:24:37;9.07;;;5.55;;
34144;SDS011;20422;53.014;8.886;2022-08-25T01:27:03;7.28;;;5.43;;
34144;SDS011;20422;53.014;8.886;2022-08-25T01:29:29;12.50;;;5.93;;
34144;SDS011;20422;53.014;8.886;2022-08-25T01:31:59;12.35;;;5.70;;
34144;SDS011;20422;53.014;8.886;2022-08-25T01:34:29;8.35;;;5.75;;
34144;SDS011;20422;53.014;8.886;2022-08-25T01:36:56;8.90;;;5.13;;
34144;SDS011;20422;53.014;8.886;2022-08-25T01:39:22;10.30;;;5.65;;
34144;SDS011;20422;53.014;8.886;2022-08-25T01:44:17;12.07;;;5.78;;
34144;SDS011;20422;53.014;8.886;2022-08-25T01:46:43;10.13;;;6.00;;
34144;SDS011;20422;53.014;8.886;2022-08-25T01:49:08;8.35;;;5.38;;
34144;SDS011;20422;53.014;8.886;2022-08-25T01:51:39;8.98;;;5.85;;
34144;SDS011;20422;53.014;8.886;2022-08-25T01:54:08;14.18;;;6.18;;
34144;SDS011;20422;53.014;8.886;2022-08-25T01:56:34;11.25;;;5.63;;
34144;SDS011;20422;53.014;8.886;2022-08-25T01:58:59;12.02;;;5.95;;
34144;SDS011;20422;53.014;8.886;2022-08-25T02:01:26;10.45;;;6.22;;
34144;SDS011;20422;53.014;8.886;2022-08-25T02:03:52;12.27;;;6.35;;
34144;SDS011;20422;53.014;8.886;2022-08-25T02:06:21;8.57;;;6.00;;
34144;SDS011;20422;53.014;8.886;2022-08-25T02:08:49;8.47;;;6.33;;
34144;SDS011;20422;53.014;8.886;2022-08-25T02:11:16;8.82;;;6.57;;
34144;SDS011;20422;53.014;8.886;2022-08-25T02:13:42;10.82;;;6.40;;
34144;SDS011;20422;53.014;8.886;2022-08-25T02:16:07;10.43;;;7.15;;
34144;SDS011;20422;53.014;8.886;2022-08-25T02:18:34;8.45;;;6.28;;
34144;SDS011;20422;53.014;8.886;2022-08-25T02:21:00;12.68;;;6.78;;
34144;SDS011;20422;53.014;8.886;2022-08-25T02:23:25;13.65;;;7.43;;
34144;SDS011;20422;53.014;8.886;2022-08-25T02:25:51;10.27;;;6.68;;
34144;SDS011;20422;53.014;8.886;2022-08-25T02:28:17;11.02;;;6.68;;
34144;SDS011;20422;53.014;8.886;2022-08-25T02:30:43;10.45;;;7.00;;
34144;SDS011;20422;53.014;8.886;2022-08-25T02:33:09;10.75;;;7.20;;
34144;SDS011;20422;53.014;8.886;2022-08-25T02:35:35;11.65;;;6.63;;
34144;SDS011;20422;53.014;8.886;2022-08-25T02:38:01;10.00;;;6.88;;
34144;SDS011;20422;53.014;8.886;2022-08-25T02:40:26;10.88;;;7.22;;
34144;SDS011;20422;53.014;8.886;2022-08-25T02:42:52;9.98;;;7.13;;
34144;SDS011;20422;53.014;8.886;2022-08-25T02:45:17;14.98;;;7.10;;
34144;SDS011;20422;53.014;8.886;2022-08-25T02:47:43;9.57;;;7.18;;
34144;SDS011;20422;53.014;8.886;2022-08-25T02:50:10;9.23;;;6.97;;
34144;SDS011;20422;53.014;8.886;2022-08-25T02:52:36;11.35;;;6.75;;
34144;SDS011;20422;53.014;8.886;2022-08-25T02:55:03;11.68;;;7.28;;
34144;SDS011;20422;53.014;8.886;2022-08-25T02:57:30;12.73;;;7.85;;
34144;SDS011;20422;53.014;8.886;2022-08-25T02:59:56;10.10;;;8.07;;
34144;SDS011;20422;53.014;8.886;2022-08-25T03:02:23;15.90;;;7.93;;
34144;SDS011;20422;53.014;8.886;2022-08-25T03:04:49;13.65;;;8.77;;
34144;SDS011;20422;53.014;8.886;2022-08-25T03:07:16;15.18;;;8.98;;
34144;SDS011;20422;53.014;8.886;2022-08-25T03:09:42;11.93;;;8.40;;
34144;SDS011;20422;53.014;8.886;2022-08-25T03:12:08;11.50;;;8.07;;
34144;SDS011;20422;53.014;8.886;2022-08-25T03:14:34;10.25;;;7.90;;
34144;SDS011;20422;53.014;8.886;2022-08-25T03:17:00;12.63;;;8.05;;
34144;SDS011;20422;53.014;8.886;2022-08-25T03:19:25;14.32;;;8.40;;
34144;SDS011;20422;53.014;8.886;2022-08-25T03:21:51;14.30;;;8.20;;
34144;SDS011;20422;53.014;8.886;2022-08-25T03:24:19;13.30;;;7.80;;
34144;SDS011;20422;53.014;8.886;2022-08-25T03:26:45;12.85;;;8.27;;
34144;SDS011;20422;53.014;8.886;2022-08-25T03:29:30;19.02;;;9.50;;
34144;SDS011;20422;53.014;8.886;2022-08-25T03:31:57;14.07;;;8.15;;
34144;SDS011;20422;53.014;8.886;2022-08-25T03:34:23;14.27;;;9.07;;
34144;SDS011;20422;53.014;8.886;2022-08-25T03:36:51;12.40;;;8.27;;
34144;SDS011;20422;53.014;8.886;2022-08-25T03:39:18;18.00;;;10.02;;
34144;SDS011;20422;53.014;8.886;2022-08-25T03:41:45;11.48;;;8.75;;
34144;SDS011;20422;53.014;8.886;2022-08-25T03:44:11;15.45;;;9.75;;
34144;SDS011;20422;53.014;8.886;2022-08-25T03:46:38;11.15;;;9.50;;
34144;SDS011;20422;53.014;8.886;2022-08-25T03:49:06;15.57;;;11.60;;
34144;SDS011;20422;53.014;8.886;2022-08-25T03:51:34;15.45;;;11.15;;
34144;SDS011;20422;53.014;8.886;2022-08-25T03:54:02;17.90;;;10.93;;
34144;SDS011;20422;53.014;8.886;2022-08-25T03:56:28;16.70;;;10.63;;
34144;SDS011;20422;53.014;8.886;2022-08-25T03:58:55;15.73;;;10.93;;
34144;SDS011;20422;53.014;8.886;2022-08-25T04:01:21;15.18;;;10.13;;
34144;SDS011;20422;53.014;8.886;2022-08-25T04:03:47;15.50;;;11.10;;
34144;SDS011;20422;53.014;8.886;2022-08-25T04:06:14;12.15;;;9.43;;
34144;SDS011;20422;53.014;8.886;2022-08-25T04:08:40;17.02;;;11.27;;
34144;SDS011;20422;53.014;8.886;2022-08-25T04:11:07;14.20;;;10.88;;
34144;SDS011;20422;53.014;8.886;2022-08-25T04:13:34;17.17;;;11.65;;
34144;SDS011;20422;53.014;8.886;2022-08-25T04:16:00;20.65;;;12.50;;
34144;SDS011;20422;53.014;8.886;2022-08-25T04:18:27;17.85;;;10.95;;
34144;SDS011;20422;53.014;8.886;2022-08-25T04:21:00;15.52;;;10.48;;
34144;SDS011;20422;53.014;8.886;2022-08-25T04:23:27;16.05;;;11.18;;
34144;SDS011;20422;53.014;8.886;2022-08-25T04:25:53;18.58;;;11.93;;
34144;SDS011;20422;53.014;8.886;2022-08-25T04:28:18;17.10;;;12.23;;
34144;SDS011;20422;53.014;8.886;2022-08-25T04:30:43;15.27;;;12.38;;
34144;SDS011;20422;53.014;8.886;2022-08-25T04:33:09;20.98;;;12.52;;
34144;SDS011;20422;53.014;8.886;2022-08-25T04:35:34;17.52;;;12.88;;
34144;SDS011;20422;53.014;8.886;2022-08-25T04:37:59;18.33;;;13.25;;
34144;SDS011;20422;53.014;8.886;2022-08-25T04:40:26;20.05;;;12.70;;
34144;SDS011;20422;53.014;8.886;2022-08-25T04:42:51;24.75;;;13.18;;
34144;SDS011;20422;53.014;8.886;2022-08-25T04:45:17;16.83;;;12.45;;
34144;SDS011;20422;53.014;8.886;2022-08-25T04:47:42;18.42;;;12.07;;
34144;SDS011;20422;53.014;8.886;2022-08-25T04:50:08;26.85;;;14.30;;
34144;SDS011;20422;53.014;8.886;2022-08-25T04:52:33;17.50;;;12.30;;
34144;SDS011;20422;53.014;8.886;2022-08-25T04:54:58;20.42;;;13.60;;
34144;SDS011;20422;53.014;8.886;2022-08-25T04:57:24;21.85;;;13.02;;
34144;SDS011;20422;53.014;8.886;2022-08-25T04:59:50;21.05;;;13.00;;
34144;SDS011;20422;53.014;8.886;2022-08-25T05:02:16;18.55;;;11.20;;
34144;SDS011;20422;53.014;8.886;2022-08-25T05:04:41;16.23;;;11.30;;
34144;SDS011;20422;53.014;8.886;2022-08-25T05:07:07;17.63;;;10.50;;
34144;SDS011;20422;53.014;8.886;2022-08-25T05:09:33;18.83;;;11.15;;
34144;SDS011;20422;53.014;8.886;2022-08-25T05:12:01;22.42;;;12.00;;
34144;SDS011;20422;53.014;8.886;2022-08-25T05:14:27;20.17;;;12.52;;
34144;SDS011;20422;53.014;8.886;2022-08-25T05:16:53;15.77;;;12.07;;
34144;SDS011;20422;53.014;8.886;2022-08-25T05:19:19;16.00;;;11.60;;
34144;SDS011;20422;53.014;8.886;2022-08-25T05:21:45;18.35;;;11.43;;
34144;SDS011;20422;53.014;8.886;2022-08-25T05:24:11;15.10;;;10.65;;
34144;SDS011;20422;53.014;8.886;2022-08-25T05:26:36;15.38;;;10.02;;
34144;SDS011;20422;53.014;8.886;2022-08-25T05:29:02;19.15;;;11.68;;
34144;SDS011;20422;53.014;8.886;2022-08-25T05:31:29;17.33;;;10.13;;
34144;SDS011;20422;53.014;8.886;2022-08-25T05:33:55;22.75;;;10.73;;
34144;SDS011;20422;53.014;8.886;2022-08-25T05:36:21;13.18;;;8.73;;
34144;SDS011;20422;53.014;8.886;2022-08-25T05:38:48;14.88;;;9.68;;
34144;SDS011;20422;53.014;8.886;2022-08-25T05:41:15;15.95;;;10.30;;
34144;SDS011;20422;53.014;8.886;2022-08-25T05:43:42;17.70;;;10.02;;
34144;SDS011;20422;53.014;8.886;2022-08-25T05:46:12;18.33;;;9.45;;
34144;SDS011;20422;53.014;8.886;2022-08-25T05:48:39;15.65;;;9.73;;
34144;SDS011;20422;53.014;8.886;2022-08-25T05:51:06;14.23;;;10.05;;
34144;SDS011;20422;53.014;8.886;2022-08-25T05:53:35;12.50;;;9.10;;
34144;SDS011;20422;53.014;8.886;2022-08-25T05:56:03;12.63;;;8.75;;
34144;SDS011;20422;53.014;8.886;2022-08-25T05:58:31;16.77;;;10.75;;
34144;SDS011;20422;53.014;8.886;2022-08-25T06:00:58;19.70;;;9.85;;
34144;SDS011;20422;53.014;8.886;2022-08-25T06:03:50;13.23;;;10.32;;
34144;SDS011;20422;53.014;8.886;2022-08-25T06:06:18;15.05;;;9.10;;
34144;SDS011;20422;53.014;8.886;2022-08-25T06:08:45;15.10;;;9.52;;
34144;SDS011;20422;53.014;8.886;2022-08-25T06:11:11;13.07;;;10.00;;
34144;SDS011;20422;53.014;8.886;2022-08-25T06:13:38;19.33;;;9.15;;
34144;SDS011;20422;53.014;8.886;2022-08-25T06:16:04;14.65;;;9.80;;
34144;SDS011;20422;53.014;8.886;2022-08-25T06:18:30;15.32;;;10.35;;
34144;SDS011;20422;53.014;8.886;2022-08-25T06:20:56;12.50;;;9.85;;
34144;SDS011;20422;53.014;8.886;2022-08-25T06:23:21;14.60;;;9.95;;
34144;SDS011;20422;53.014;8.886;2022-08-25T06:25:50;14.50;;;8.60;;
34144;SDS011;20422;53.014;8.886;2022-08-25T06:28:18;11.60;;;10.15;;
34144;SDS011;20422;53.014;8.886;2022-08-25T06:30:44;16.80;;;9.55;;
34144;SDS011;20422;53.014;8.886;2022-08-25T06:33:10;12.38;;;8.80;;
34144;SDS011;20422;53.014;8.886;2022-08-25T06:35:36;14.88;;;9.32;;
34144;SDS011;20422;53.014;8.886;2022-08-25T06:38:02;10.20;;;8.73;;
34144;SDS011;20422;53.014;8.886;2022-08-25T06:40:27;12.75;;;8.70;;
34144;SDS011;20422;53.014;8.886;2022-08-25T06:42:55;10.68;;;8.02;;
34144;SDS011;20422;53.014;8.886;2022-08-25T06:45:21;12.13;;;8.38;;
34144;SDS011;20422;53.014;8.886;2022-08-25T06:47:46;11.40;;;9.00;;
34144;SDS011;20422;53.014;8.886;2022-08-25T06:50:12;12.25;;;8.82;;
34144;SDS011;20422;53.014;8.886;2022-08-25T06:52:37;11.10;;;9.07;;
34144;SDS011;20422;53.014;8.886;2022-08-25T06:55:02;11.20;;;8.13;;
34144;SDS011;20422;53.014;8.886;2022-08-25T06:57:28;9.90;;;8.90;;
34144;SDS011;20422;53.014;8.886;2022-08-25T06:59:55;12.27;;;9.25;;
34144;SDS011;20422;53.014;8.886;2022-08-25T07:02:20;14.43;;;9.27;;
34144;SDS011;20422;53.014;8.886;2022-08-25T07:04:45;14.80;;;10.20;;
34144;SDS011;20422;53.014;8.886;2022-08-25T07:07:11;16.42;;;10.70;;
34144;SDS011;20422;53.014;8.886;2022-08-25T07:09:36;12.45;;;9.65;;
34144;SDS011;20422;53.014;8.886;2022-08-25T07:12:02;23.27;;;11.40;;
34144;SDS011;20422;53.014;8.886;2022-08-25T07:14:29;16.42;;;10.15;;
34144;SDS011;20422;53.014;8.886;2022-08-25T07:16:55;16.08;;;11.05;;
34144;SDS011;20422;53.014;8.886;2022-08-25T07:19:20;16.10;;;10.27;;
34144;SDS011;20422;53.014;8.886;2022-08-25T07:21:48;13.80;;;9.73;;
34144;SDS011;20422;53.014;8.886;2022-08-25T07:24:15;16.88;;;11.10;;
34144;SDS011;20422;53.014;8.886;2022-08-25T07:26:44;16.02;;;10.00;;
34144;SDS011;20422;53.014;8.886;2022-08-25T07:29:15;16.20;;;10.85;;
34144;SDS011;20422;53.014;8.886;2022-08-25T07:31:42;13.15;;;10.00;;
34144;SDS011;20422;53.014;8.886;2022-08-25T07:34:11;15.05;;;10.38;;
34144;SDS011;20422;53.014;8.886;2022-08-25T07:36:55;12.80;;;9.93;;
34144;SDS011;20422;53.014;8.886;2022-08-25T07:39:24;17.77;;;10.63;;
34144;SDS011;20422;53.014;8.886;2022-08-25T07:41:51;19.42;;;10.98;;
34144;SDS011;20422;53.014;8.886;2022-08-25T07:44:17;17.63;;;10.75;;
34144;SDS011;20422;53.014;8.886;2022-08-25T07:46:42;15.07;;;10.18;;
34144;SDS011;20422;53.014;8.886;2022-08-25T07:49:09;12.45;;;9.98;;
34144;SDS011;20422;53.014;8.886;2022-08-25T07:51:34;16.05;;;8.98;;
34144;SDS011;20422;53.014;8.886;2022-08-25T07:54:00;12.15;;;9.20;;
34144;SDS011;20422;53.014;8.886;2022-08-25T07:56:25;16.80;;;9.20;;
34144;SDS011;20422;53.014;8.886;2022-08-25T07:58:51;12.15;;;9.05;;
34144;SDS011;20422;53.014;8.886;2022-08-25T08:01:17;14.73;;;10.50;;
34144;SDS011;20422;53.014;8.886;2022-08-25T08:03:45;12.90;;;9.63;;
34144;SDS011;20422;53.014;8.886;2022-08-25T08:06:11;17.40;;;10.82;;
34144;SDS011;20422;53.014;8.886;2022-08-25T08:08:38;15.07;;;10.00;;
34144;SDS011;20422;53.014;8.886;2022-08-25T08:11:13;14.68;;;10.10;;
34144;SDS011;20422;53.014;8.886;2022-08-25T08:13:43;12.40;;;9.55;;
34144;SDS011;20422;53.014;8.886;2022-08-25T08:16:10;14.93;;;10.05;;
34144;SDS011;20422;53.014;8.886;2022-08-25T08:18:36;14.45;;;10.68;;
34144;SDS011;20422;53.014;8.886;2022-08-25T08:21:03;15.50;;;10.57;;
34144;SDS011;20422;53.014;8.886;2022-08-25T08:23:28;17.98;;;10.00;;
34144;SDS011;20422;53.014;8.886;2022-08-25T08:25:54;20.30;;;9.88;;
34144;SDS011;20422;53.014;8.886;2022-08-25T08:28:20;15.73;;;11.20;;
34144;SDS011;20422;53.014;8.886;2022-08-25T08:30:45;16.15;;;10.02;;
34144;SDS011;20422;53.014;8.886;2022-08-25T08:33:11;19.42;;;10.35;;
34144;SDS011;20422;53.014;8.886;2022-08-25T08:35:36;12.82;;;10.18;;
34144;SDS011;20422;53.014;8.886;2022-08-25T08:38:02;17.20;;;10.77;;
34144;SDS011;20422;53.014;8.886;2022-08-25T08:40:28;15.20;;;11.00;;
34144;SDS011;20422;53.014;8.886;2022-08-25T08:43:05;19.33;;;11.55;;
34144;SDS011;20422;53.014;8.886;2022-08-25T08:50:49;17.65;;;10.48;;
34144;SDS011;20422;53.014;8.886;2022-08-25T08:53:34;13.73;;;10.27;;
34144;SDS011;20422;53.014;8.886;2022-08-25T08:56:14;20.05;;;9.63;;
34144;SDS011;20422;53.014;8.886;2022-08-25T08:58:45;16.67;;;10.07;;
34144;SDS011;20422;53.014;8.886;2022-08-25T09:01:28;17.40;;;9.52;;
34144;SDS011;20422;53.014;8.886;2022-08-25T09:04:18;12.90;;;9.13;;
34144;SDS011;20422;53.014;8.886;2022-08-25T09:06:50;12.00;;;9.15;;
34144;SDS011;20422;53.014;8.886;2022-08-25T09:09:19;13.85;;;9.70;;
34144;SDS011;20422;53.014;8.886;2022-08-25T09:11:58;15.50;;;9.52;;
34144;SDS011;20422;53.014;8.886;2022-08-25T09:17:35;12.85;;;7.95;;
34144;SDS011;20422;53.014;8.886;2022-08-25T09:28:47;13.13;;;8.27;;
34144;SDS011;20422;53.014;8.886;2022-08-25T09:31:22;15.25;;;9.25;;
34144;SDS011;20422;53.014;8.886;2022-08-25T09:33:56;11.63;;;7.93;;
34144;SDS011;20422;53.014;8.886;2022-08-25T09:36:24;14.83;;;9.00;;
34144;SDS011;20422;53.014;8.886;2022-08-25T09:38:50;15.80;;;8.63;;
34144;SDS011;20422;53.014;8.886;2022-08-25T09:41:17;12.35;;;7.35;;
34144;SDS011;20422;53.014;8.886;2022-08-25T09:43:59;14.63;;;7.70;;
34144;SDS011;20422;53.014;8.886;2022-08-25T09:46:26;10.93;;;8.23;;
34144;SDS011;20422;53.014;8.886;2022-08-25T09:48:53;12.65;;;7.28;;
34144;SDS011;20422;53.014;8.886;2022-08-25T09:53:53;11.70;;;7.32;;
34144;SDS011;20422;53.014;8.886;2022-08-25T09:56:21;9.55;;;6.40;;
34144;SDS011;20422;53.014;8.886;2022-08-25T09:58:48;8.30;;;6.95;;
34144;SDS011;20422;53.014;8.886;2022-08-25T10:01:15;15.73;;;6.75;;
34144;SDS011;20422;53.014;8.886;2022-08-25T10:06:20;15.57;;;8.27;;
34144;SDS011;20422;53.014;8.886;2022-08-25T10:11:12;12.10;;;6.35;;
34144;SDS011;20422;53.014;8.886;2022-08-25T10:13:59;14.07;;;6.75;;
34144;SDS011;20422;53.014;8.886;2022-08-25T10:16:27;12.05;;;6.07;;
34144;SDS011;20422;53.014;8.886;2022-08-25T10:19:10;12.32;;;6.25;;
34144;SDS011;20422;53.014;8.886;2022-08-25T10:24:32;14.95;;;7.45;;
34144;SDS011;20422;53.014;8.886;2022-08-25T10:30:00;12.98;;;7.22;;
34144;SDS011;20422;53.014;8.886;2022-08-25T10:33:08;7.50;;;5.57;;
34144;SDS011;20422;53.014;8.886;2022-08-25T10:36:03;10.70;;;5.78;;
34144;SDS011;20422;53.014;8.886;2022-08-25T10:38:41;10.75;;;6.10;;
34144;SDS011;20422;53.014;8.886;2022-08-25T10:50:04;9.52;;;6.35;;
34144;SDS011;20422;53.014;8.886;2022-08-25T10:55:25;11.43;;;6.45;;
34144;SDS011;20422;53.014;8.886;2022-08-25T11:00:50;7.50;;;5.75;;
34144;SDS011;20422;53.014;8.886;2022-08-25T11:06:49;12.00;;;6.25;;
34144;SDS011;20422;53.014;8.886;2022-08-25T11:09:15;9.45;;;6.40;;
34144;SDS011;20422;53.014;8.886;2022-08-25T11:14:24;11.27;;;5.70;;
34144;SDS011;20422;53.014;8.886;2022-08-25T11:16:58;11.77;;;5.97;;
34144;SDS011;20422;53.014;8.886;2022-08-25T11:19:38;11.07;;;5.85;;
34144;SDS011;20422;53.014;8.886;2022-08-25T11:22:11;12.35;;;6.22;;
34144;SDS011;20422;53.014;8.886;2022-08-25T11:27:20;8.77;;;5.80;;
34144;SDS011;20422;53.014;8.886;2022-08-25T11:32:30;8.77;;;6.30;;
34144;SDS011;20422;53.014;8.886;2022-08-25T11:35:00;9.05;;;6.20;;
34144;SDS011;20422;53.014;8.886;2022-08-25T11:37:27;8.38;;;5.65;;
34144;SDS011;20422;53.014;8.886;2022-08-25T11:51:56;21.23;;;6.80;;
34144;SDS011;20422;53.014;8.886;2022-08-25T11:54:33;11.05;;;6.43;;
34144;SDS011;20422;53.014;8.886;2022-08-25T11:57:27;11.18;;;6.63;;
34144;SDS011;20422;53.014;8.886;2022-08-25T12:02:48;15.27;;;6.40;;
34144;SDS011;20422;53.014;8.886;2022-08-25T12:10:18;10.68;;;6.75;;
34144;SDS011;20422;53.014;8.886;2022-08-25T12:18:15;13.55;;;6.20;;
34144;SDS011;20422;53.014;8.886;2022-08-25T12:26:07;8.27;;;6.00;;
34144;SDS011;20422;53.014;8.886;2022-08-25T12:28:46;12.73;;;6.30;;
34144;SDS011;20422;53.014;8.886;2022-08-25T12:37:15;13.32;;;6.80;;
34144;SDS011;20422;53.014;8.886;2022-08-25T12:47:46;10.18;;;6.43;;
34144;SDS011;20422;53.014;8.886;2022-08-25T12:50:26;15.88;;;7.35;;
34144;SDS011;20422;53.014;8.886;2022-08-25T12:52:52;11.45;;;6.10;;
34144;SDS011;20422;53.014;8.886;2022-08-25T12:55:20;8.40;;;5.38;;
34144;SDS011;20422;53.014;8.886;2022-08-25T12:57:51;10.60;;;6.05;;
34144;SDS011;20422;53.014;8.886;2022-08-25T13:00:23;8.30;;;5.40;;
34144;SDS011;20422;53.014;8.886;2022-08-25T13:02:57;11.60;;;6.03;;
34144;SDS011;20422;53.014;8.886;2022-08-25T13:08:27;13.10;;;5.38;;
34144;SDS011;20422;53.014;8.886;2022-08-25T13:11:17;6.53;;;5.40;;
34144;SDS011;20422;53.014;8.886;2022-08-25T13:16:26;17.75;;;5.80;;
34144;SDS011;20422;53.014;8.886;2022-08-25T13:18:54;9.43;;;5.25;;
34144;SDS011;20422;53.014;8.886;2022-08-25T13:21:30;8.40;;;5.18;;
34144;SDS011;20422;53.014;8.886;2022-08-25T13:24:03;11.00;;;4.93;;
34144;SDS011;20422;53.014;8.886;2022-08-25T13:26:31;8.30;;;4.50;;
34144;SDS011;20422;53.014;8.886;2022-08-25T13:29:23;13.63;;;5.55;;
34144;SDS011;20422;53.014;8.886;2022-08-25T13:32:11;7.18;;;4.65;;
34144;SDS011;20422;53.014;8.886;2022-08-25T13:34:38;8.55;;;5.15;;
34144;SDS011;20422;53.014;8.886;2022-08-25T13:37:15;12.07;;;6.30;;
34144;SDS011;20422;53.014;8.886;2022-08-25T13:40:20;9.63;;;5.85;;
34144;SDS011;20422;53.014;8.886;2022-08-25T13:42:47;9.68;;;6.00;;
34144;SDS011;20422;53.014;8.886;2022-08-25T13:45:19;14.88;;;5.75;;
34144;SDS011;20422;53.014;8.886;2022-08-25T13:47:52;10.40;;;6.03;;
34144;SDS011;20422;53.014;8.886;2022-08-25T13:55:47;14.15;;;6.68;;
34144;SDS011;20422;53.014;8.886;2022-08-25T13:58:17;13.60;;;5.88;;
34144;SDS011;20422;53.014;8.886;2022-08-25T14:01:32;15.38;;;6.30;;
34144;SDS011;20422;53.014;8.886;2022-08-25T14:03:43;12.05;;;6.35;;
34144;SDS011;20422;53.014;8.886;2022-08-25T14:06:23;13.38;;;6.07;;
34144;SDS011;20422;53.014;8.886;2022-08-25T14:11:30;11.43;;;6.32;;
34144;SDS011;20422;53.014;8.886;2022-08-25T14:14:05;13.02;;;6.78;;
34144;SDS011;20422;53.014;8.886;2022-08-25T14:16:47;13.50;;;6.78;;
34144;SDS011;20422;53.014;8.886;2022-08-25T14:19:20;12.88;;;6.55;;
34144;SDS011;20422;53.014;8.886;2022-08-25T14:24:16;12.95;;;6.45;;
34144;SDS011;20422;53.014;8.886;2022-08-25T14:26:44;16.63;;;6.55;;
34144;SDS011;20422;53.014;8.886;2022-08-25T14:29:11;8.23;;;6.35;;
34144;SDS011;20422;53.014;8.886;2022-08-25T14:31:40;10.07;;;6.57;;
34144;SDS011;20422;53.014;8.886;2022-08-25T14:34:16;11.00;;;6.63;;
34144;SDS011;20422;53.014;8.886;2022-08-25T14:36:47;10.77;;;5.70;;
34144;SDS011;20422;53.014;8.886;2022-08-25T14:39:15;9.57;;;6.22;;
34144;SDS011;20422;53.014;8.886;2022-08-25T14:41:43;16.92;;;6.22;;
34144;SDS011;20422;53.014;8.886;2022-08-25T14:44:12;13.33;;;6.47;;
34144;SDS011;20422;53.014;8.886;2022-08-25T14:46:45;18.98;;;7.05;;
34144;SDS011;20422;53.014;8.886;2022-08-25T14:49:23;15.38;;;6.70;;
34144;SDS011;20422;53.014;8.886;2022-08-25T14:51:55;13.88;;;6.43;;
34144;SDS011;20422;53.014;8.886;2022-08-25T14:54:26;17.75;;;7.57;;
34144;SDS011;20422;53.014;8.886;2022-08-25T14:56:53;13.10;;;5.85;;
34144;SDS011;20422;53.014;8.886;2022-08-25T14:59:21;9.73;;;6.38;;
34144;SDS011;20422;53.014;8.886;2022-08-25T15:01:47;11.15;;;6.35;;
34144;SDS011;20422;53.014;8.886;2022-08-25T15:04:16;18.15;;;7.03;;
34144;SDS011;20422;53.014;8.886;2022-08-25T15:06:45;11.63;;;6.55;;
34144;SDS011;20422;53.014;8.886;2022-08-25T15:09:19;12.80;;;6.57;;
34144;SDS011;20422;53.014;8.886;2022-08-25T15:11:50;8.23;;;5.88;;
34144;SDS011;20422;53.014;8.886;2022-08-25T15:14:22;17.48;;;6.93;;
34144;SDS011;20422;53.014;8.886;2022-08-25T15:16:56;13.10;;;7.30;;
34144;SDS011;20422;53.014;8.886;2022-08-25T15:19:24;10.57;;;7.15;;
34144;SDS011;20422;53.014;8.886;2022-08-25T15:21:51;13.45;;;6.53;;
34144;SDS011;20422;53.014;8.886;2022-08-25T15:24:19;16.17;;;7.28;;
34144;SDS011;20422;53.014;8.886;2022-08-25T15:26:57;12.05;;;6.20;;
34144;SDS011;20422;53.014;8.886;2022-08-25T15:29:25;10.93;;;6.10;;
34144;SDS011;20422;53.014;8.886;2022-08-25T15:31:55;17.65;;;6.95;;
34144;SDS011;20422;53.014;8.886;2022-08-25T15:34:22;10.95;;;7.03;;
34144;SDS011;20422;53.014;8.886;2022-08-25T15:36:49;12.82;;;6.70;;
34144;SDS011;20422;53.014;8.886;2022-08-25T15:39:15;15.13;;;7.75;;
34144;SDS011;20422;53.014;8.886;2022-08-25T15:41:42;17.25;;;7.20;;
34144;SDS011;20422;53.014;8.886;2022-08-25T15:44:09;11.25;;;7.63;;
34144;SDS011;20422;53.014;8.886;2022-08-25T15:46:36;11.95;;;6.90;;
34144;SDS011;20422;53.014;8.886;2022-08-25T15:49:03;14.70;;;6.38;;
34144;SDS011;20422;53.014;8.886;2022-08-25T15:51:30;13.45;;;6.53;;
34144;SDS011;20422;53.014;8.886;2022-08-25T15:53:57;13.73;;;7.75;;
34144;SDS011;20422;53.014;8.886;2022-08-25T15:56:23;11.77;;;6.40;;
34144;SDS011;20422;53.014;8.886;2022-08-25T15:58:50;13.50;;;6.32;;
34144;SDS011;20422;53.014;8.886;2022-08-25T16:01:19;15.70;;;6.72;;
34144;SDS011;20422;53.014;8.886;2022-08-25T16:03:46;15.80;;;6.05;;
34144;SDS011;20422;53.014;8.886;2022-08-25T16:06:12;13.45;;;6.10;;
34144;SDS011;20422;53.014;8.886;2022-08-25T16:08:39;9.77;;;6.85;;
34144;SDS011;20422;53.014;8.886;2022-08-25T16:11:06;13.52;;;6.50;;
34144;SDS011;20422;53.014;8.886;2022-08-25T16:13:43;13.40;;;7.47;;
34144;SDS011;20422;53.014;8.886;2022-08-25T16:16:09;12.10;;;6.32;;
34144;SDS011;20422;53.014;8.886;2022-08-25T16:18:36;13.52;;;6.40;;
34144;SDS011;20422;53.014;8.886;2022-08-25T16:21:01;12.02;;;6.43;;
34144;SDS011;20422;53.014;8.886;2022-08-25T16:23:28;9.55;;;6.70;;
34144;SDS011;20422;53.014;8.886;2022-08-25T16:25:54;12.88;;;6.53;;
34144;SDS011;20422;53.014;8.886;2022-08-25T16:28:20;15.38;;;7.28;;
34144;SDS011;20422;53.014;8.886;2022-08-25T16:30:46;13.05;;;6.45;;
34144;SDS011;20422;53.014;8.886;2022-08-25T16:33:13;15.48;;;7.15;;
34144;SDS011;20422;53.014;8.886;2022-08-25T16:35:40;13.07;;;6.07;;
34144;SDS011;20422;53.014;8.886;2022-08-25T16:38:05;12.75;;;6.38;;
34144;SDS011;20422;53.014;8.886;2022-08-25T16:40:32;9.20;;;6.47;;
34144;SDS011;20422;53.014;8.886;2022-08-25T16:42:58;9.98;;;6.53;;